sensor_id;sensor_type;location;lat;lon;timestamp;P1;durP1;ratioP1;P2;durP2;ratioP2
6941;SDS011;3510;43.200;27.920;2023-06-10T00:01:23;21.58;;;15.27;;
6941;SDS011;3510;43.200;27.920;2023-06-10T00:03:51;25.38;;;16.85;;
6941;SDS011;3510;43.200;27.920;2023-06-10T00:06:18;15.73;;;11.70;;
6941;SDS011;3510;43.200;27.920;2023-06-10T00:08:46;18.17;;;14.13;;
6941;SDS011;3510;43.200;27.920;2023-06-10T00:11:15;19.40;;;14.00;;
6941;SDS011;3510;43.200;27.920;2023-06-10T00:13:42;24.85;;;13.18;;
6941;SDS011;3510;43.200;27.920;2023-06-10T00:16:08;15.27;;;11.80;;
6941;SDS011;3510;43.200;27.920;2023-06-10T00:18:35;16.40;;;11.98;;
6941;SDS011;3510;43.200;27.920;2023-06-10T00:21:03;21.63;;;12.38;;
6941;SDS011;3510;43.200;27.920;2023-06-10T00:23:33;23.75;;;16.73;;
6941;SDS011;3510;43.200;27.920;2023-06-10T00:26:02;23.45;;;16.02;;
6941;SDS011;3510;43.200;27.920;2023-06-10T00:28:31;25.92;;;17.73;;
6941;SDS011;3510;43.200;27.920;2023-06-10T00:30:57;22.50;;;16.33;;
6941;SDS011;3510;43.200;27.920;2023-06-10T00:33:24;17.85;;;13.70;;
6941;SDS011;3510;43.200;27.920;2023-06-10T00:35:51;18.75;;;12.52;;
6941;SDS011;3510;43.200;27.920;2023-06-10T00:38:18;20.75;;;13.00;;
6941;SDS011;3510;43.200;27.920;2023-06-10T00:40:45;21.17;;;14.63;;
6941;SDS011;3510;43.200;27.920;2023-06-10T00:43:11;11.77;;;10.57;;
6941;SDS011;3510;43.200;27.920;2023-06-10T00:45:40;18.67;;;10.68;;
6941;SDS011;3510;43.200;27.920;2023-06-10T00:48:07;20.27;;;11.48;;
6941;SDS011;3510;43.200;27.920;2023-06-10T00:50:33;11.93;;;9.13;;
6941;SDS011;3510;43.200;27.920;2023-06-10T00:53:04;13.25;;;9.32;;
6941;SDS011;3510;43.200;27.920;2023-06-10T00:55:31;12.40;;;8.88;;
6941;SDS011;3510;43.200;27.920;2023-06-10T00:57:58;14.68;;;8.90;;
6941;SDS011;3510;43.200;27.920;2023-06-10T01:00:26;14.40;;;8.52;;
6941;SDS011;3510;43.200;27.920;2023-06-10T01:02:54;14.63;;;8.95;;
6941;SDS011;3510;43.200;27.920;2023-06-10T01:05:22;12.52;;;9.30;;
6941;SDS011;3510;43.200;27.920;2023-06-10T01:07:50;11.60;;;8.38;;
6941;SDS011;3510;43.200;27.920;2023-06-10T01:10:28;12.93;;;10.95;;
6941;SDS011;3510;43.200;27.920;2023-06-10T01:12:59;10.40;;;7.43;;
6941;SDS011;3510;43.200;27.920;2023-06-10T01:15:29;10.77;;;7.75;;
6941;SDS011;3510;43.200;27.920;2023-06-10T01:17:58;12.13;;;8.68;;
6941;SDS011;3510;43.200;27.920;2023-06-10T01:20:27;18.73;;;9.52;;
6941;SDS011;3510;43.200;27.920;2023-06-10T01:22:56;11.07;;;9.07;;
6941;SDS011;3510;43.200;27.920;2023-06-10T01:25:24;9.80;;;8.30;;
6941;SDS011;3510;43.200;27.920;2023-06-10T01:27:54;12.73;;;8.27;;
6941;SDS011;3510;43.200;27.920;2023-06-10T01:30:30;17.67;;;9.43;;
6941;SDS011;3510;43.200;27.920;2023-06-10T01:33:03;14.25;;;9.52;;
6941;SDS011;3510;43.200;27.920;2023-06-10T01:35:33;14.95;;;9.85;;
6941;SDS011;3510;43.200;27.920;2023-06-10T01:38:05;11.45;;;9.10;;
6941;SDS011;3510;43.200;27.920;2023-06-10T01:40:33;16.05;;;8.80;;
6941;SDS011;3510;43.200;27.920;2023-06-10T01:43:00;10.80;;;9.38;;
6941;SDS011;3510;43.200;27.920;2023-06-10T01:45:28;9.82;;;8.82;;
6941;SDS011;3510;43.200;27.920;2023-06-10T01:47:55;14.00;;;8.40;;
6941;SDS011;3510;43.200;27.920;2023-06-10T01:50:21;18.85;;;8.75;;
6941;SDS011;3510;43.200;27.920;2023-06-10T01:52:48;10.18;;;8.60;;
6941;SDS011;3510;43.200;27.920;2023-06-10T01:55:16;11.73;;;7.68;;
6941;SDS011;3510;43.200;27.920;2023-06-10T01:57:43;11.43;;;8.43;;
6941;SDS011;3510;43.200;27.920;2023-06-10T02:00:10;12.43;;;8.75;;
6941;SDS011;3510;43.200;27.920;2023-06-10T02:02:38;14.45;;;8.65;;
6941;SDS011;3510;43.200;27.920;2023-06-10T02:05:05;10.05;;;8.00;;
6941;SDS011;3510;43.200;27.920;2023-06-10T02:07:32;9.80;;;8.23;;
6941;SDS011;3510;43.200;27.920;2023-06-10T02:09:59;12.25;;;8.23;;
6941;SDS011;3510;43.200;27.920;2023-06-10T02:12:27;17.10;;;9.27;;
6941;SDS011;3510;43.200;27.920;2023-06-10T02:14:53;16.67;;;9.10;;
6941;SDS011;3510;43.200;27.920;2023-06-10T02:17:20;9.60;;;7.80;;
6941;SDS011;3510;43.200;27.920;2023-06-10T02:19:48;13.82;;;9.23;;
6941;SDS011;3510;43.200;27.920;2023-06-10T02:22:17;15.75;;;9.35;;
6941;SDS011;3510;43.200;27.920;2023-06-10T02:24:45;25.77;;;11.05;;
6941;SDS011;3510;43.200;27.920;2023-06-10T02:27:12;19.52;;;11.07;;
6941;SDS011;3510;43.200;27.920;2023-06-10T02:29:41;18.48;;;13.02;;
6941;SDS011;3510;43.200;27.920;2023-06-10T02:32:08;23.40;;;12.82;;
6941;SDS011;3510;43.200;27.920;2023-06-10T02:34:36;16.40;;;13.27;;
6941;SDS011;3510;43.200;27.920;2023-06-10T02:37:03;19.42;;;12.40;;
6941;SDS011;3510;43.200;27.920;2023-06-10T02:39:30;12.93;;;8.70;;
6941;SDS011;3510;43.200;27.920;2023-06-10T02:41:56;14.50;;;11.02;;
6941;SDS011;3510;43.200;27.920;2023-06-10T02:44:23;12.32;;;10.65;;
6941;SDS011;3510;43.200;27.920;2023-06-10T02:46:51;19.52;;;9.68;;
6941;SDS011;3510;43.200;27.920;2023-06-10T02:49:18;12.23;;;10.13;;
6941;SDS011;3510;43.200;27.920;2023-06-10T02:51:45;13.88;;;9.75;;
6941;SDS011;3510;43.200;27.920;2023-06-10T02:54:12;14.90;;;10.75;;
6941;SDS011;3510;43.200;27.920;2023-06-10T02:56:38;11.18;;;9.35;;
6941;SDS011;3510;43.200;27.920;2023-06-10T02:59:06;12.07;;;9.30;;
6941;SDS011;3510;43.200;27.920;2023-06-10T03:01:33;10.65;;;8.82;;
6941;SDS011;3510;43.200;27.920;2023-06-10T03:04:03;10.75;;;7.25;;
6941;SDS011;3510;43.200;27.920;2023-06-10T03:06:30;6.80;;;6.20;;
6941;SDS011;3510;43.200;27.920;2023-06-10T03:08:59;9.35;;;8.00;;
6941;SDS011;3510;43.200;27.920;2023-06-10T03:11:26;8.48;;;7.68;;
6941;SDS011;3510;43.200;27.920;2023-06-10T03:13:53;8.50;;;7.13;;
6941;SDS011;3510;43.200;27.920;2023-06-10T03:16:20;9.27;;;8.35;;
6941;SDS011;3510;43.200;27.920;2023-06-10T03:18:48;10.13;;;8.32;;
6941;SDS011;3510;43.200;27.920;2023-06-10T03:21:16;11.95;;;8.30;;
6941;SDS011;3510;43.200;27.920;2023-06-10T03:23:46;8.90;;;8.15;;
6941;SDS011;3510;43.200;27.920;2023-06-10T03:26:13;10.63;;;8.95;;
6941;SDS011;3510;43.200;27.920;2023-06-10T03:28:41;13.30;;;9.95;;
6941;SDS011;3510;43.200;27.920;2023-06-10T07:11:42;8.88;;;6.28;;
6941;SDS011;3510;43.200;27.920;2023-06-10T07:14:08;5.15;;;4.85;;
6941;SDS011;3510;43.200;27.920;2023-06-10T07:16:35;8.18;;;4.38;;
6941;SDS011;3510;43.200;27.920;2023-06-10T07:19:02;5.20;;;3.97;;
6941;SDS011;3510;43.200;27.920;2023-06-10T07:21:30;3.85;;;3.40;;
6941;SDS011;3510;43.200;27.920;2023-06-10T07:23:59;4.35;;;3.15;;
6941;SDS011;3510;43.200;27.920;2023-06-10T07:26:25;3.40;;;3.20;;
6941;SDS011;3510;43.200;27.920;2023-06-10T07:28:52;2.80;;;2.60;;
6941;SDS011;3510;43.200;27.920;2023-06-10T07:31:19;7.30;;;3.15;;
6941;SDS011;3510;43.200;27.920;2023-06-10T07:33:46;2.90;;;2.70;;
6941;SDS011;3510;43.200;27.920;2023-06-10T07:36:13;2.90;;;2.70;;
6941;SDS011;3510;43.200;27.920;2023-06-10T07:38:44;4.93;;;3.42;;
6941;SDS011;3510;43.200;27.920;2023-06-10T07:41:11;5.15;;;3.22;;
6941;SDS011;3510;43.200;27.920;2023-06-10T07:43:38;3.05;;;2.85;;
6941;SDS011;3510;43.200;27.920;2023-06-10T07:46:06;6.80;;;3.88;;
6941;SDS011;3510;43.200;27.920;2023-06-10T07:48:33;3.17;;;2.97;;
6941;SDS011;3510;43.200;27.920;2023-06-10T07:51:00;4.30;;;3.40;;
6941;SDS011;3510;43.200;27.920;2023-06-10T07:53:27;3.20;;;2.90;;
6941;SDS011;3510;43.200;27.920;2023-06-10T07:55:56;5.40;;;2.88;;
6941;SDS011;3510;43.200;27.920;2023-06-10T07:58:22;6.10;;;3.00;;
6941;SDS011;3510;43.200;27.920;2023-06-10T08:00:49;4.97;;;2.83;;
6941;SDS011;3510;43.200;27.920;2023-06-10T08:03:16;4.00;;;3.58;;
6941;SDS011;3510;43.200;27.920;2023-06-10T08:05:43;3.67;;;2.33;;
6941;SDS011;3510;43.200;27.920;2023-06-10T08:08:10;3.40;;;2.30;;
6941;SDS011;3510;43.200;27.920;2023-06-10T08:10:36;2.50;;;2.40;;
6941;SDS011;3510;43.200;27.920;2023-06-10T08:13:05;8.70;;;4.13;;
6941;SDS011;3510;43.200;27.920;2023-06-10T08:15:34;2.55;;;2.45;;
6941;SDS011;3510;43.200;27.920;2023-06-10T08:18:01;3.80;;;2.72;;
6941;SDS011;3510;43.200;27.920;2023-06-10T08:20:29;3.40;;;3.10;;
6941;SDS011;3510;43.200;27.920;2023-06-10T08:22:57;3.05;;;2.80;;
6941;SDS011;3510;43.200;27.920;2023-06-10T08:25:24;2.60;;;2.40;;
6941;SDS011;3510;43.200;27.920;2023-06-10T08:27:51;4.97;;;2.38;;
6941;SDS011;3510;43.200;27.920;2023-06-10T08:30:22;5.20;;;2.75;;
6941;SDS011;3510;43.200;27.920;2023-06-10T08:32:49;4.88;;;3.00;;
6941;SDS011;3510;43.200;27.920;2023-06-10T08:35:16;3.22;;;3.03;;
6941;SDS011;3510;43.200;27.920;2023-06-10T08:37:45;2.88;;;2.67;;
6941;SDS011;3510;43.200;27.920;2023-06-10T08:40:12;4.05;;;2.70;;
6941;SDS011;3510;43.200;27.920;2023-06-10T08:42:39;6.80;;;2.70;;
6941;SDS011;3510;43.200;27.920;2023-06-10T08:45:12;3.00;;;2.80;;
6941;SDS011;3510;43.200;27.920;2023-06-10T08:47:45;4.75;;;2.95;;
6941;SDS011;3510;43.200;27.920;2023-06-10T08:50:16;3.22;;;2.92;;
6941;SDS011;3510;43.200;27.920;2023-06-10T08:52:44;7.55;;;2.90;;
6941;SDS011;3510;43.200;27.920;2023-06-10T08:55:29;3.72;;;2.75;;
6941;SDS011;3510;43.200;27.920;2023-06-10T08:57:59;3.28;;;2.92;;
6941;SDS011;3510;43.200;27.920;2023-06-10T09:00:40;2.90;;;2.70;;
6941;SDS011;3510;43.200;27.920;2023-06-10T09:03:08;2.72;;;2.63;;
6941;SDS011;3510;43.200;27.920;2023-06-10T09:05:37;2.75;;;2.55;;
6941;SDS011;3510;43.200;27.920;2023-06-10T09:08:05;3.65;;;3.35;;
6941;SDS011;3510;43.200;27.920;2023-06-10T09:10:33;7.15;;;2.85;;
6941;SDS011;3510;43.200;27.920;2023-06-10T09:13:00;2.78;;;2.58;;
6941;SDS011;3510;43.200;27.920;2023-06-10T09:15:27;2.67;;;2.58;;
6941;SDS011;3510;43.200;27.920;2023-06-10T09:17:54;3.08;;;2.88;;
6941;SDS011;3510;43.200;27.920;2023-06-10T09:20:25;5.35;;;2.70;;
6941;SDS011;3510;43.200;27.920;2023-06-10T09:22:53;2.50;;;2.35;;
6941;SDS011;3510;43.200;27.920;2023-06-10T09:25:20;2.50;;;2.30;;
6941;SDS011;3510;43.200;27.920;2023-06-10T09:28:03;3.30;;;3.03;;
6941;SDS011;3510;43.200;27.920;2023-06-10T09:30:31;3.00;;;2.70;;
6941;SDS011;3510;43.200;27.920;2023-06-10T09:33:02;3.00;;;2.80;;
6941;SDS011;3510;43.200;27.920;2023-06-10T09:35:37;4.72;;;2.35;;
6941;SDS011;3510;43.200;27.920;2023-06-10T09:38:13;2.58;;;2.38;;
6941;SDS011;3510;43.200;27.920;2023-06-10T09:40:50;3.40;;;2.97;;
6941;SDS011;3510;43.200;27.920;2023-06-10T09:43:17;3.53;;;3.13;;
6941;SDS011;3510;43.200;27.920;2023-06-10T09:45:44;3.35;;;3.05;;
6941;SDS011;3510;43.200;27.920;2023-06-10T09:48:14;5.55;;;2.50;;
6941;SDS011;3510;43.200;27.920;2023-06-10T09:50:43;4.18;;;2.78;;
6941;SDS011;3510;43.200;27.920;2023-06-10T09:53:10;2.63;;;2.42;;
6941;SDS011;3510;43.200;27.920;2023-06-10T09:55:38;3.17;;;2.78;;
6941;SDS011;3510;43.200;27.920;2023-06-10T09:58:05;3.00;;;2.80;;
6941;SDS011;3510;43.200;27.920;2023-06-10T10:00:32;4.18;;;2.38;;
6941;SDS011;3510;43.200;27.920;2023-06-10T10:02:59;3.47;;;2.50;;
6941;SDS011;3510;43.200;27.920;2023-06-10T10:05:28;2.50;;;2.40;;
6941;SDS011;3510;43.200;27.920;2023-06-10T10:07:58;3.92;;;2.80;;
6941;SDS011;3510;43.200;27.920;2023-06-10T10:10:24;4.20;;;3.00;;
6941;SDS011;3510;43.200;27.920;2023-06-10T10:12:53;3.08;;;2.78;;
6941;SDS011;3510;43.200;27.920;2023-06-10T10:15:22;2.88;;;2.08;;
6941;SDS011;3510;43.200;27.920;2023-06-10T10:17:56;3.33;;;3.13;;
6941;SDS011;3510;43.200;27.920;2023-06-10T10:20:29;4.22;;;3.28;;
6941;SDS011;3510;43.200;27.920;2023-06-10T10:23:02;3.45;;;2.75;;
6941;SDS011;3510;43.200;27.920;2023-06-10T10:25:32;6.85;;;2.85;;
6941;SDS011;3510;43.200;27.920;2023-06-10T10:28:03;2.78;;;2.53;;
6941;SDS011;3510;43.200;27.920;2023-06-10T10:30:39;3.58;;;3.38;;
6941;SDS011;3510;43.200;27.920;2023-06-10T10:33:09;3.15;;;2.95;;
6941;SDS011;3510;43.200;27.920;2023-06-10T10:35:43;3.83;;;2.67;;
6941;SDS011;3510;43.200;27.920;2023-06-10T10:38:13;6.97;;;2.78;;
6941;SDS011;3510;43.200;27.920;2023-06-10T10:40:41;3.40;;;3.10;;
6941;SDS011;3510;43.200;27.920;2023-06-10T10:43:09;3.28;;;3.03;;
6941;SDS011;3510;43.200;27.920;2023-06-10T10:45:36;3.00;;;2.80;;
6941;SDS011;3510;43.200;27.920;2023-06-10T10:48:05;3.90;;;2.40;;
6941;SDS011;3510;43.200;27.920;2023-06-10T10:50:36;4.47;;;2.80;;
6941;SDS011;3510;43.200;27.920;2023-06-10T10:53:05;2.65;;;2.45;;
6941;SDS011;3510;43.200;27.920;2023-06-10T10:55:35;6.60;;;2.88;;
6941;SDS011;3510;43.200;27.920;2023-06-10T10:58:03;3.80;;;2.80;;
6941;SDS011;3510;43.200;27.920;2023-06-10T11:00:31;2.78;;;2.50;;
6941;SDS011;3510;43.200;27.920;2023-06-10T11:02:59;2.78;;;2.60;;
6941;SDS011;3510;43.200;27.920;2023-06-10T11:05:36;3.63;;;2.20;;
6941;SDS011;3510;43.200;27.920;2023-06-10T11:08:05;4.85;;;2.00;;
6941;SDS011;3510;43.200;27.920;2023-06-10T11:10:35;4.50;;;2.63;;
6941;SDS011;3510;43.200;27.920;2023-06-10T11:13:06;3.05;;;2.85;;
6941;SDS011;3510;43.200;27.920;2023-06-10T11:15:37;2.33;;;2.22;;
6941;SDS011;3510;43.200;27.920;2023-06-10T11:18:09;4.65;;;2.70;;
6941;SDS011;3510;43.200;27.920;2023-06-10T11:20:44;2.85;;;2.65;;
6941;SDS011;3510;43.200;27.920;2023-06-10T11:23:24;3.17;;;2.88;;
6941;SDS011;3510;43.200;27.920;2023-06-10T11:26:11;5.57;;;2.70;;
6941;SDS011;3510;43.200;27.920;2023-06-10T11:28:40;2.72;;;2.53;;
6941;SDS011;3510;43.200;27.920;2023-06-10T11:31:08;3.00;;;2.80;;
6941;SDS011;3510;43.200;27.920;2023-06-10T11:33:46;3.20;;;2.97;;
6941;SDS011;3510;43.200;27.920;2023-06-10T11:36:13;2.78;;;2.67;;
6941;SDS011;3510;43.200;27.920;2023-06-10T11:38:41;2.90;;;2.80;;
6941;SDS011;3510;43.200;27.920;2023-06-10T11:41:08;2.85;;;2.65;;
6941;SDS011;3510;43.200;27.920;2023-06-10T11:43:38;4.35;;;2.90;;
6941;SDS011;3510;43.200;27.920;2023-06-10T11:46:09;9.18;;;3.20;;
6941;SDS011;3510;43.200;27.920;2023-06-10T11:48:35;3.03;;;2.72;;
6941;SDS011;3510;43.200;27.920;2023-06-10T11:51:05;10.25;;;2.88;;
6941;SDS011;3510;43.200;27.920;2023-06-10T11:53:33;2.90;;;2.70;;
6941;SDS011;3510;43.200;27.920;2023-06-10T11:56:01;2.80;;;2.60;;
6941;SDS011;3510;43.200;27.920;2023-06-10T11:58:29;4.65;;;3.13;;
6941;SDS011;3510;43.200;27.920;2023-06-10T12:00:56;3.22;;;2.95;;
6941;SDS011;3510;43.200;27.920;2023-06-10T12:03:26;2.17;;;2.08;;
6941;SDS011;3510;43.200;27.920;2023-06-10T12:06:02;3.15;;;2.63;;
6941;SDS011;3510;43.200;27.920;2023-06-10T12:08:30;4.63;;;2.80;;
6941;SDS011;3510;43.200;27.920;2023-06-10T12:10:59;3.63;;;2.95;;
6941;SDS011;3510;43.200;27.920;2023-06-10T12:13:26;4.13;;;2.90;;
6941;SDS011;3510;43.200;27.920;2023-06-10T12:15:54;3.67;;;3.40;;
6941;SDS011;3510;43.200;27.920;2023-06-10T12:18:32;4.35;;;3.10;;
6941;SDS011;3510;43.200;27.920;2023-06-10T12:20:59;3.78;;;3.30;;
6941;SDS011;3510;43.200;27.920;2023-06-10T12:23:25;3.35;;;2.95;;
6941;SDS011;3510;43.200;27.920;2023-06-10T12:25:53;3.53;;;3.28;;
6941;SDS011;3510;43.200;27.920;2023-06-10T12:28:21;3.28;;;2.92;;
6941;SDS011;3510;43.200;27.920;2023-06-10T12:30:48;8.23;;;3.80;;
6941;SDS011;3510;43.200;27.920;2023-06-10T12:33:17;5.75;;;2.60;;
6941;SDS011;3510;43.200;27.920;2023-06-10T12:35:48;3.08;;;2.88;;
6941;SDS011;3510;43.200;27.920;2023-06-10T12:38:20;4.07;;;3.78;;
6941;SDS011;3510;43.200;27.920;2023-06-10T12:40:49;3.20;;;3.00;;
6941;SDS011;3510;43.200;27.920;2023-06-10T12:43:19;3.15;;;2.85;;
6941;SDS011;3510;43.200;27.920;2023-06-10T12:45:46;3.42;;;3.20;;
6941;SDS011;3510;43.200;27.920;2023-06-10T12:48:18;4.60;;;3.20;;
6941;SDS011;3510;43.200;27.920;2023-06-10T12:50:50;5.80;;;3.28;;
6941;SDS011;3510;43.200;27.920;2023-06-10T12:53:18;3.20;;;2.95;;
6941;SDS011;3510;43.200;27.920;2023-06-10T12:55:46;3.40;;;3.10;;
6941;SDS011;3510;43.200;27.920;2023-06-10T12:58:13;2.85;;;2.65;;
6941;SDS011;3510;43.200;27.920;2023-06-10T13:00:40;3.20;;;2.90;;
6941;SDS011;3510;43.200;27.920;2023-06-10T13:03:08;3.40;;;2.92;;
6941;SDS011;3510;43.200;27.920;2023-06-10T13:05:43;3.33;;;3.17;;
6941;SDS011;3510;43.200;27.920;2023-06-10T13:08:09;3.58;;;3.20;;
6941;SDS011;3510;43.200;27.920;2023-06-10T13:10:36;3.83;;;3.63;;
6941;SDS011;3510;43.200;27.920;2023-06-10T13:13:03;3.50;;;3.30;;
6941;SDS011;3510;43.200;27.920;2023-06-10T13:15:32;3.95;;;3.65;;
6941;SDS011;3510;43.200;27.920;2023-06-10T13:18:01;4.03;;;3.72;;
6941;SDS011;3510;43.200;27.920;2023-06-10T13:20:34;3.70;;;3.40;;
6941;SDS011;3510;43.200;27.920;2023-06-10T13:23:03;7.10;;;3.58;;
6941;SDS011;3510;43.200;27.920;2023-06-10T13:25:30;3.33;;;3.13;;
6941;SDS011;3510;43.200;27.920;2023-06-10T13:27:59;3.78;;;3.08;;
6941;SDS011;3510;43.200;27.920;2023-06-10T13:30:26;3.55;;;3.35;;
6941;SDS011;3510;43.200;27.920;2023-06-10T13:32:53;3.67;;;3.40;;
6941;SDS011;3510;43.200;27.920;2023-06-10T13:35:19;4.32;;;3.25;;
6941;SDS011;3510;43.200;27.920;2023-06-10T13:37:46;6.40;;;3.08;;
6941;SDS011;3510;43.200;27.920;2023-06-10T13:40:14;5.07;;;2.58;;
6941;SDS011;3510;43.200;27.920;2023-06-10T13:42:44;3.20;;;3.03;;
6941;SDS011;3510;43.200;27.920;2023-06-10T13:45:15;5.50;;;4.15;;
6941;SDS011;3510;43.200;27.920;2023-06-10T13:47:42;3.30;;;3.05;;
6941;SDS011;3510;43.200;27.920;2023-06-10T13:50:09;2.83;;;2.72;;
6941;SDS011;3510;43.200;27.920;2023-06-10T13:52:38;3.10;;;2.90;;
6941;SDS011;3510;43.200;27.920;2023-06-10T13:55:05;4.20;;;3.00;;
6941;SDS011;3510;43.200;27.920;2023-06-10T13:57:33;2.35;;;2.25;;
6941;SDS011;3510;43.200;27.920;2023-06-10T14:00:00;3.88;;;3.13;;
6941;SDS011;3510;43.200;27.920;2023-06-10T14:02:27;6.38;;;2.92;;
6941;SDS011;3510;43.200;27.920;2023-06-10T14:04:54;3.72;;;2.85;;
6941;SDS011;3510;43.200;27.920;2023-06-10T14:07:20;2.53;;;2.42;;
6941;SDS011;3510;43.200;27.920;2023-06-10T14:09:47;2.90;;;2.42;;
6941;SDS011;3510;43.200;27.920;2023-06-10T14:12:16;2.58;;;2.38;;
6941;SDS011;3510;43.200;27.920;2023-06-10T14:14:44;5.57;;;2.45;;
6941;SDS011;3510;43.200;27.920;2023-06-10T14:17:11;5.35;;;2.78;;
6941;SDS011;3510;43.200;27.920;2023-06-10T14:19:39;3.70;;;2.90;;
6941;SDS011;3510;43.200;27.920;2023-06-10T14:22:06;5.78;;;2.60;;
6941;SDS011;3510;43.200;27.920;2023-06-10T14:24:33;2.90;;;2.70;;
6941;SDS011;3510;43.200;27.920;2023-06-10T14:27:01;3.47;;;2.20;;
6941;SDS011;3510;43.200;27.920;2023-06-10T14:29:28;3.15;;;2.95;;
6941;SDS011;3510;43.200;27.920;2023-06-10T14:31:57;2.65;;;2.55;;
6941;SDS011;3510;43.200;27.920;2023-06-10T14:34:24;3.50;;;2.33;;
6941;SDS011;3510;43.200;27.920;2023-06-10T14:36:55;6.43;;;2.35;;
6941;SDS011;3510;43.200;27.920;2023-06-10T14:39:21;4.55;;;2.75;;
6941;SDS011;3510;43.200;27.920;2023-06-10T14:41:48;2.85;;;2.65;;
6941;SDS011;3510;43.200;27.920;2023-06-10T14:44:15;3.30;;;2.55;;
6941;SDS011;3510;43.200;27.920;2023-06-10T14:46:42;3.10;;;2.55;;
6941;SDS011;3510;43.200;27.920;2023-06-10T14:49:11;3.00;;;2.35;;
6941;SDS011;3510;43.200;27.920;2023-06-10T14:51:45;5.15;;;2.33;;
6941;SDS011;3510;43.200;27.920;2023-06-10T14:54:14;2.63;;;2.42;;
6941;SDS011;3510;43.200;27.920;2023-06-10T14:56:41;2.58;;;2.38;;
6941;SDS011;3510;43.200;27.920;2023-06-10T14:59:08;7.03;;;2.67;;
6941;SDS011;3510;43.200;27.920;2023-06-10T15:01:35;3.70;;;2.60;;
6941;SDS011;3510;43.200;27.920;2023-06-10T15:04:02;2.28;;;2.08;;
6941;SDS011;3510;43.200;27.920;2023-06-10T15:06:30;2.90;;;2.70;;
6941;SDS011;3510;43.200;27.920;2023-06-10T15:08:57;3.50;;;2.45;;
6941;SDS011;3510;43.200;27.920;2023-06-10T15:11:23;2.28;;;2.03;;
6941;SDS011;3510;43.200;27.920;2023-06-10T15:13:50;2.13;;;1.95;;
6941;SDS011;3510;43.200;27.920;2023-06-10T15:16:17;3.80;;;2.70;;
6941;SDS011;3510;43.200;27.920;2023-06-10T15:18:44;2.53;;;2.33;;
6941;SDS011;3510;43.200;27.920;2023-06-10T15:21:11;2.20;;;2.00;;
6941;SDS011;3510;43.200;27.920;2023-06-10T15:23:39;8.57;;;4.50;;
6941;SDS011;3510;43.200;27.920;2023-06-10T15:26:06;3.70;;;2.90;;
6941;SDS011;3510;43.200;27.920;2023-06-10T15:28:33;2.40;;;2.30;;
6941;SDS011;3510;43.200;27.920;2023-06-10T15:31:00;2.40;;;2.30;;
6941;SDS011;3510;43.200;27.920;2023-06-10T15:33:27;3.60;;;2.50;;
6941;SDS011;3510;43.200;27.920;2023-06-10T15:35:54;2.03;;;1.92;;
6941;SDS011;3510;43.200;27.920;2023-06-10T15:38:21;2.40;;;2.20;;
6941;SDS011;3510;43.200;27.920;2023-06-10T15:40:49;2.25;;;2.13;;
6941;SDS011;3510;43.200;27.920;2023-06-10T15:43:15;2.60;;;2.40;;
6941;SDS011;3510;43.200;27.920;2023-06-10T15:45:42;2.30;;;2.10;;
6941;SDS011;3510;43.200;27.920;2023-06-10T15:48:09;2.33;;;2.03;;
6941;SDS011;3510;43.200;27.920;2023-06-10T15:50:36;2.88;;;2.28;;
6941;SDS011;3510;43.200;27.920;2023-06-10T15:53:03;2.38;;;2.20;;
6941;SDS011;3510;43.200;27.920;2023-06-10T15:55:29;3.30;;;1.90;;
6941;SDS011;3510;43.200;27.920;2023-06-10T15:57:58;2.17;;;2.08;;
6941;SDS011;3510;43.200;27.920;2023-06-10T16:00:25;2.22;;;2.10;;
6941;SDS011;3510;43.200;27.920;2023-06-10T16:02:52;2.60;;;2.40;;
6941;SDS011;3510;43.200;27.920;2023-06-10T16:05:19;3.03;;;2.28;;
6941;SDS011;3510;43.200;27.920;2023-06-10T16:07:46;2.00;;;1.90;;
6941;SDS011;3510;43.200;27.920;2023-06-10T16:10:12;3.97;;;2.30;;
6941;SDS011;3510;43.200;27.920;2023-06-10T16:12:39;3.65;;;2.38;;
6941;SDS011;3510;43.200;27.920;2023-06-10T16:15:08;2.25;;;2.15;;
6941;SDS011;3510;43.200;27.920;2023-06-10T16:17:35;2.83;;;2.35;;
6941;SDS011;3510;43.200;27.920;2023-06-10T16:20:03;2.63;;;2.35;;
6941;SDS011;3510;43.200;27.920;2023-06-10T16:22:31;3.28;;;3.08;;
6941;SDS011;3510;43.200;27.920;2023-06-10T16:24:58;2.30;;;2.05;;
6941;SDS011;3510;43.200;27.920;2023-06-10T16:27:25;3.08;;;2.78;;
6941;SDS011;3510;43.200;27.920;2023-06-10T16:29:52;5.45;;;4.10;;
6941;SDS011;3510;43.200;27.920;2023-06-10T16:32:20;4.25;;;3.47;;
6941;SDS011;3510;43.200;27.920;2023-06-10T16:34:47;2.80;;;2.60;;
6941;SDS011;3510;43.200;27.920;2023-06-10T16:37:14;3.38;;;3.08;;
6941;SDS011;3510;43.200;27.920;2023-06-10T16:39:40;3.15;;;2.85;;
6941;SDS011;3510;43.200;27.920;2023-06-10T16:42:07;2.40;;;2.30;;
6941;SDS011;3510;43.200;27.920;2023-06-10T16:44:34;2.83;;;2.72;;
6941;SDS011;3510;43.200;27.920;2023-06-10T16:47:01;2.83;;;2.33;;
6941;SDS011;3510;43.200;27.920;2023-06-10T16:49:29;2.45;;;2.25;;
6941;SDS011;3510;43.200;27.920;2023-06-10T22:44:34;6.00;;;5.50;;
6941;SDS011;3510;43.200;27.920;2023-06-10T22:47:01;5.50;;;4.93;;
6941;SDS011;3510;43.200;27.920;2023-06-10T22:49:29;5.60;;;5.10;;
6941;SDS011;3510;43.200;27.920;2023-06-10T22:51:55;6.38;;;5.97;;
6941;SDS011;3510;43.200;27.920;2023-06-10T22:54:23;5.72;;;4.63;;
6941;SDS011;3510;43.200;27.920;2023-06-10T22:56:51;4.75;;;4.20;;
6941;SDS011;3510;43.200;27.920;2023-06-10T22:59:18;5.75;;;5.35;;
6941;SDS011;3510;43.200;27.920;2023-06-10T23:01:45;6.35;;;5.03;;
6941;SDS011;3510;43.200;27.920;2023-06-10T23:04:12;6.03;;;5.32;;
6941;SDS011;3510;43.200;27.920;2023-06-10T23:06:40;7.43;;;5.15;;
6941;SDS011;3510;43.200;27.920;2023-06-10T23:09:07;5.88;;;4.72;;
6941;SDS011;3510;43.200;27.920;2023-06-10T23:11:35;6.47;;;5.88;;
6941;SDS011;3510;43.200;27.920;2023-06-10T23:14:01;7.07;;;5.47;;
6941;SDS011;3510;43.200;27.920;2023-06-10T23:16:28;7.43;;;5.97;;
6941;SDS011;3510;43.200;27.920;2023-06-10T23:18:55;6.43;;;5.43;;
6941;SDS011;3510;43.200;27.920;2023-06-10T23:21:24;6.57;;;5.43;;
6941;SDS011;3510;43.200;27.920;2023-06-10T23:23:55;6.45;;;5.78;;
6941;SDS011;3510;43.200;27.920;2023-06-10T23:26:22;8.95;;;6.40;;
6941;SDS011;3510;43.200;27.920;2023-06-10T23:28:49;8.55;;;6.95;;
6941;SDS011;3510;43.200;27.920;2023-06-10T23:31:16;12.52;;;8.40;;
6941;SDS011;3510;43.200;27.920;2023-06-10T23:33:43;11.55;;;8.20;;
6941;SDS011;3510;43.200;27.920;2023-06-10T23:36:11;9.30;;;7.28;;
6941;SDS011;3510;43.200;27.920;2023-06-10T23:38:41;11.00;;;7.70;;
6941;SDS011;3510;43.200;27.920;2023-06-10T23:41:09;10.90;;;7.78;;
6941;SDS011;3510;43.200;27.920;2023-06-10T23:43:36;7.55;;;6.95;;
6941;SDS011;3510;43.200;27.920;2023-06-10T23:46:02;9.18;;;8.05;;
6941;SDS011;3510;43.200;27.920;2023-06-10T23:48:30;11.52;;;7.97;;
6941;SDS011;3510;43.200;27.920;2023-06-10T23:50:57;9.68;;;8.80;;
6941;SDS011;3510;43.200;27.920;2023-06-10T23:53:24;12.35;;;8.02;;
6941;SDS011;3510;43.200;27.920;2023-06-10T23:55:51;13.02;;;8.07;;
6941;SDS011;3510;43.200;27.920;2023-06-10T23:58:19;8.60;;;7.80;;
